Time;durP1;ratioP1;P1;durP2;ratioP2;P2;SDS_P1;SDS_P2;PMS_P1;PMS_P2;Temp;Humidity;BMP_temperature;BMP_pressure;BME280_temperature;BME280_humidity;BME280_pressure;Samples;Min_cycle;Max_cycle;Signal;HPM_P1;HPM_P2
2022/04/16 00:01:23;;;;;;;10.48;4.63;;;15.00;99.90;;;;;;4976087;28;20065;-84
2022/04/16 00:03:49;;;;;;;10.82;4.53;;;14.90;99.90;;;;;;5004745;28;20030;-84
2022/04/16 00:06:15;;;;;;;13.98;4.15;;;14.80;99.90;;;;;;4983371;28;20452;-84
2022/04/16 00:08:40;;;;;;;9.95;4.40;;;14.80;99.90;;;;;;4985361;28;20023;-84
2022/04/16 00:11:06;;;;;;;7.60;4.65;;;14.90;99.90;;;;;;4956572;28;20498;-84
2022/04/16 00:13:32;;;;;;;11.63;4.82;;;14.80;99.90;;;;;;4973685;28;20086;-84
2022/04/16 00:15:58;;;;;;;11.85;4.38;;;14.80;99.90;;;;;;4983425;28;20822;-84
2022/04/16 00:18:25;;;;;;;14.32;5.00;;;14.70;99.90;;;;;;4980358;28;20030;-83
2022/04/16 00:20:51;;;;;;;10.20;4.05;;;14.70;99.90;;;;;;4993198;28;20061;-83
2022/04/16 00:23:21;;;;;;;12.25;5.32;;;14.70;99.90;;;;;;4993126;28;20026;-84
2022/04/16 00:25:50;;;;;;;11.15;4.32;;;14.70;99.90;;;;;;4975926;28;20489;-84
2022/04/16 00:28:15;;;;;;;9.45;4.25;;;14.60;99.90;;;;;;4975392;28;20027;-84
2022/04/16 00:30:42;;;;;;;10.25;4.63;;;14.60;99.90;;;;;;5002209;28;20440;-84
2022/04/16 00:33:09;;;;;;;8.00;4.18;;;14.60;99.90;;;;;;5005612;28;20049;-84
2022/04/16 00:35:35;;;;;;;8.32;4.03;;;14.60;99.90;;;;;;4995785;28;20038;-84
2022/04/16 00:38:00;;;;;;;11.43;5.00;;;14.50;99.90;;;;;;5012900;28;20512;-84
2022/04/16 00:40:26;;;;;;;8.98;4.78;;;14.40;99.90;;;;;;5012708;28;20469;-84
2022/04/16 00:42:53;;;;;;;10.02;4.60;;;14.50;99.90;;;;;;5012561;28;20022;-84
2022/04/16 00:45:19;;;;;;;14.30;4.70;;;14.40;99.90;;;;;;4993133;28;20029;-84
2022/04/16 00:47:45;;;;;;;14.52;4.65;;;14.40;99.90;;;;;;4975525;28;20018;-84
2022/04/16 00:50:12;;;;;;;10.05;4.63;;;14.40;99.90;;;;;;5012557;28;20026;-84
2022/04/16 00:52:39;;;;;;;14.95;4.45;;;14.30;99.90;;;;;;5012682;28;20497;-84
2022/04/16 00:55:06;;;;;;;9.25;4.82;;;14.30;99.90;;;;;;5012711;28;20026;-84
2022/04/16 00:57:32;;;;;;;12.80;5.03;;;14.30;99.90;;;;;;4994837;28;20026;-84
2022/04/16 01:00:00;;;;;;;13.82;5.32;;;14.30;99.90;;;;;;5004492;28;20046;-84
2022/04/16 01:02:25;;;;;;;9.55;5.38;;;14.20;99.90;;;;;;4992935;28;20058;-84
2022/04/16 01:04:52;;;;;;;11.50;4.82;;;14.20;99.90;;;;;;4993065;28;20116;-84
2022/04/16 01:07:25;;;;;;;11.05;4.63;;;14.20;99.90;;;;;;4992701;28;20022;-83
2022/04/16 01:09:52;;;;;;;10.68;5.10;;;14.10;99.90;;;;;;5012292;28;20030;-84
2022/04/16 01:12:18;;;;;;;11.10;5.47;;;14.10;99.90;;;;;;5000089;28;20033;-84
2022/04/16 01:14:45;;;;;;;10.07;5.10;;;14.00;99.90;;;;;;4990992;28;20054;-84
2022/04/16 01:17:15;;;;;;;11.10;5.47;;;14.00;99.90;;;;;;4977938;28;20429;-84
2022/04/16 01:19:43;;;;;;;14.60;5.10;;;13.90;99.90;;;;;;4993719;28;20035;-84
2022/04/16 01:22:13;;;;;;;9.07;5.22;;;13.90;99.90;;;;;;5013610;28;20101;-84
2022/04/16 01:24:43;;;;;;;8.00;4.80;;;13.90;99.90;;;;;;5015997;28;20034;-85
2022/04/16 01:27:10;;;;;;;9.82;5.32;;;13.90;99.90;;;;;;4995225;28;20379;-84
2022/04/16 01:29:36;;;;;;;12.95;6.05;;;13.80;99.90;;;;;;4996312;28;20018;-84
2022/04/16 01:32:02;;;;;;;14.77;5.72;;;13.90;99.90;;;;;;4979051;28;20521;-84
2022/04/16 01:34:29;;;;;;;8.10;5.20;;;13.80;99.90;;;;;;4995658;28;20085;-84
2022/04/16 01:36:55;;;;;;;12.30;5.18;;;13.70;99.90;;;;;;4977957;28;20113;-84
2022/04/16 01:39:20;;;;;;;15.52;6.07;;;13.80;99.90;;;;;;4984550;28;20065;-84
2022/04/16 01:41:46;;;;;;;14.15;5.65;;;13.60;99.90;;;;;;5002220;28;20027;-84
2022/04/16 01:44:12;;;;;;;15.23;6.10;;;13.60;99.90;;;;;;4959227;28;20034;-84
2022/04/16 01:46:37;;;;;;;11.75;5.38;;;13.60;99.90;;;;;;4993569;28;20100;-84
2022/04/16 01:49:05;;;;;;;15.07;5.45;;;13.50;99.90;;;;;;5000399;28;20417;-84
2022/04/16 01:51:30;;;;;;;12.32;5.10;;;13.40;99.90;;;;;;5015498;28;20366;-85
2022/04/16 01:53:56;;;;;;;13.30;5.45;;;13.50;99.90;;;;;;5015348;28;20148;-84
2022/04/16 01:56:22;;;;;;;14.65;6.32;;;13.40;99.90;;;;;;5009429;28;20042;-84
2022/04/16 01:58:49;;;;;;;12.88;6.22;;;13.40;99.90;;;;;;4995976;28;20030;-81
2022/04/16 02:01:15;;;;;;;17.80;6.00;;;13.40;99.90;;;;;;4996279;28;20029;-81
2022/04/16 02:03:41;;;;;;;11.23;5.82;;;13.30;99.90;;;;;;4995490;28;20022;-82
2022/04/16 02:06:06;;;;;;;12.75;6.28;;;13.20;99.90;;;;;;4978260;28;20030;-81
2022/04/16 02:08:32;;;;;;;11.23;5.97;;;13.20;99.90;;;;;;4977381;28;20026;-81
2022/04/16 02:10:58;;;;;;;12.82;6.88;;;13.20;99.90;;;;;;4995895;28;20107;-82
2022/04/16 02:13:23;;;;;;;10.73;6.05;;;13.20;99.90;;;;;;4975637;28;20053;-81
2022/04/16 02:15:49;;;;;;;14.23;6.25;;;13.30;99.90;;;;;;4979092;28;20034;-81
2022/04/16 02:18:15;;;;;;;11.25;6.38;;;13.30;99.90;;;;;;4962889;28;20427;-81
2022/04/16 02:20:43;;;;;;;14.07;5.82;;;13.20;99.90;;;;;;5001577;28;20026;-82
2022/04/16 02:23:09;;;;;;;9.85;5.47;;;13.10;99.90;;;;;;5004752;28;20093;-81
2022/04/16 02:25:35;;;;;;;16.40;6.63;;;13.20;99.90;;;;;;4995119;28;20034;-82
2022/04/16 02:28:01;;;;;;;13.23;6.15;;;13.10;99.90;;;;;;4995255;28;20050;-81
2022/04/16 02:30:30;;;;;;;12.05;6.05;;;13.10;99.90;;;;;;4986389;28;20548;-81
2022/04/16 02:32:55;;;;;;;13.05;6.47;;;13.10;99.90;;;;;;4997694;28;20018;-82
2022/04/16 02:35:22;;;;;;;13.07;6.00;;;13.10;99.90;;;;;;4989093;28;20069;-82
2022/04/16 02:37:48;;;;;;;9.23;5.68;;;13.00;99.90;;;;;;4995676;28;20100;-81
2022/04/16 02:40:15;;;;;;;12.70;6.43;;;13.00;99.90;;;;;;5014900;28;20026;-82
2022/04/16 02:42:42;;;;;;;14.57;6.05;;;12.90;99.90;;;;;;4981528;28;20022;-82
2022/04/16 02:47:55;;;;;;;13.52;6.30;;;12.90;99.90;;;;;;4980300;28;20101;-81
2022/04/16 02:50:25;;;;;;;15.35;6.70;;;12.90;99.90;;;;;;4996584;28;20033;-81
2022/04/16 02:52:52;;;;;;;11.13;6.82;;;12.80;99.90;;;;;;5014197;28;20451;-81
2022/04/16 02:55:17;;;;;;;15.63;7.13;;;12.80;99.90;;;;;;5003011;28;20019;-81
2022/04/16 02:57:44;;;;;;;10.90;6.43;;;12.90;99.90;;;;;;4975393;28;20432;-82
2022/04/16 03:00:11;;;;;;;13.60;6.70;;;12.90;99.90;;;;;;4958157;28;20026;-82
2022/04/16 03:02:37;;;;;;;16.33;6.97;;;12.80;99.90;;;;;;4975398;28;20066;-81
2022/04/16 03:05:06;;;;;;;9.45;6.45;;;12.80;99.90;;;;;;4986369;28;20034;-81
2022/04/16 03:07:33;;;;;;;11.43;6.60;;;12.80;99.90;;;;;;4994535;28;20018;-81
2022/04/16 03:09:58;;;;;;;13.55;6.93;;;12.70;99.90;;;;;;4976985;28;20026;-81
2022/04/16 03:12:24;;;;;;;14.73;7.35;;;12.70;99.90;;;;;;4994694;28;20018;-82
2022/04/16 03:17:35;;;;;;;15.02;7.07;;;12.70;99.90;;;;;;4975323;28;20045;-81
2022/04/16 03:20:04;;;;;;;14.65;7.55;;;12.70;99.90;;;;;;4978276;28;20028;-81
2022/04/16 03:22:32;;;;;;;14.52;6.85;;;12.70;99.90;;;;;;4976812;28;20037;-81
2022/04/16 03:24:58;;;;;;;18.27;7.45;;;12.70;99.90;;;;;;4987832;28;20026;-81
2022/04/16 03:27:24;;;;;;;17.25;7.22;;;12.60;99.90;;;;;;4994395;28;20026;-81
2022/04/16 03:29:50;;;;;;;11.00;6.65;;;12.60;99.90;;;;;;4993756;28;20106;-82
2022/04/16 03:32:15;;;;;;;12.82;7.65;;;12.60;99.90;;;;;;4994642;28;20033;-81
2022/04/16 03:34:41;;;;;;;12.23;7.15;;;12.60;99.90;;;;;;4974646;28;20030;-81
2022/04/16 03:37:06;;;;;;;11.63;6.97;;;12.60;99.90;;;;;;4957194;28;20031;-81
2022/04/16 03:39:32;;;;;;;14.55;6.97;;;12.50;99.90;;;;;;4974989;28;20031;-81
2022/04/16 03:41:58;;;;;;;25.33;8.35;;;12.50;99.90;;;;;;4987399;28;20022;-82
2022/04/16 03:44:24;;;;;;;14.40;7.32;;;12.40;99.90;;;;;;5000396;28;20030;-81
2022/04/16 03:46:49;;;;;;;13.80;7.68;;;12.40;99.90;;;;;;4976558;28;20030;-81
2022/04/16 03:49:15;;;;;;;11.00;7.15;;;12.40;99.90;;;;;;5006573;28;20517;-81
2022/04/16 03:51:41;;;;;;;13.48;6.97;;;12.40;99.90;;;;;;4995782;28;20021;-81
2022/04/16 04:02:19;;;;;;;14.45;7.20;;;12.30;99.90;;;;;;4993887;28;20084;-81
2022/04/16 04:04:46;;;;;;;15.55;8.63;;;12.30;99.90;;;;;;4993778;28;20038;-81
2022/04/16 04:07:12;;;;;;;14.57;8.52;;;12.30;99.90;;;;;;4976152;28;20402;-82
2022/04/16 04:09:38;;;;;;;16.25;7.97;;;12.20;99.90;;;;;;4993874;28;20030;-81
2022/04/16 04:12:11;;;;;;;16.83;7.65;;;12.20;99.90;;;;;;4975498;28;20022;-81
2022/04/16 04:14:41;;;;;;;16.38;8.25;;;12.20;99.90;;;;;;4993069;28;20455;-81
2022/04/16 04:17:07;;;;;;;13.73;6.85;;;12.20;99.90;;;;;;4984259;28;20027;-81
2022/04/16 04:19:44;;;;;;;11.68;7.45;;;12.20;99.90;;;;;;4956565;28;20031;-81
2022/04/16 04:22:12;;;;;;;14.82;8.13;;;12.20;99.90;;;;;;4973974;28;20022;-81
2022/04/16 04:24:39;;;;;;;14.27;8.38;;;12.20;99.90;;;;;;4992912;28;20030;-81
2022/04/16 04:27:06;;;;;;;14.43;8.15;;;12.10;99.90;;;;;;4993234;28;20437;-81
2022/04/16 04:29:32;;;;;;;14.10;7.45;;;12.10;99.90;;;;;;4992764;28;20018;-81
2022/04/16 04:31:58;;;;;;;13.45;7.80;;;12.10;99.90;;;;;;4993428;28;20022;-81
2022/04/16 04:34:25;;;;;;;14.93;8.73;;;11.90;99.90;;;;;;4976840;28;20022;-82
2022/04/16 04:36:50;;;;;;;15.75;8.38;;;12.00;99.90;;;;;;4996803;28;20034;-81
2022/04/16 04:39:16;;;;;;;14.70;8.60;;;12.00;99.90;;;;;;4993154;28;20034;-81
2022/04/16 04:41:46;;;;;;;15.55;8.90;;;12.00;99.90;;;;;;4975914;28;20026;-81
2022/04/16 04:44:12;;;;;;;18.23;8.95;;;12.00;99.90;;;;;;4999012;28;20033;-81
2022/04/16 04:46:39;;;;;;;14.57;8.57;;;12.00;99.90;;;;;;4973885;28;20034;-81
2022/04/16 04:49:08;;;;;;;15.93;8.90;;;12.00;99.90;;;;;;4978861;28;20116;-81
2022/04/16 04:51:41;;;;;;;17.88;9.63;;;12.00;99.90;;;;;;5013115;28;20474;-82
2022/04/16 04:54:07;;;;;;;14.93;9.48;;;11.90;99.90;;;;;;5001995;28;20030;-81
2022/04/16 04:56:36;;;;;;;16.92;9.27;;;11.90;99.90;;;;;;4993444;28;20030;-82
2022/04/16 04:59:03;;;;;;;15.32;9.85;;;11.90;99.90;;;;;;4978764;28;20031;-82
2022/04/16 05:01:29;;;;;;;17.30;10.05;;;11.90;99.90;;;;;;4997168;28;20023;-81
2022/04/16 05:03:57;;;;;;;12.80;9.80;;;11.90;99.90;;;;;;4987297;28;20050;-81
2022/04/16 05:06:22;;;;;;;17.98;9.98;;;11.90;99.90;;;;;;5016094;28;20371;-81
2022/04/16 05:08:48;;;;;;;16.00;9.43;;;11.90;99.90;;;;;;5016492;28;20033;-81
2022/04/16 05:11:14;;;;;;;11.40;9.32;;;11.80;99.90;;;;;;4998889;28;20108;-81
2022/04/16 05:13:40;;;;;;;13.48;10.45;;;11.90;99.90;;;;;;4977044;28;20086;-81
2022/04/16 05:16:05;;;;;;;12.13;9.02;;;11.90;99.90;;;;;;4977323;28;20031;-80
2022/04/16 05:18:31;;;;;;;12.82;9.18;;;11.90;99.90;;;;;;4976954;28;20053;-81
2022/04/16 05:20:57;;;;;;;17.27;9.38;;;11.90;99.90;;;;;;4980472;28;20026;-81
2022/04/16 05:23:23;;;;;;;14.27;9.15;;;11.90;99.90;;;;;;5016294;28;20037;-81
2022/04/16 05:25:49;;;;;;;14.88;9.45;;;12.00;99.90;;;;;;5012296;28;20029;-81
2022/04/16 05:28:14;;;;;;;14.63;9.20;;;11.90;99.90;;;;;;4959679;28;20023;-81
2022/04/16 05:30:48;;;;;;;14.35;9.82;;;11.90;99.90;;;;;;4989561;28;20015;-82
2022/04/16 05:36:05;;;;;;;13.07;9.90;;;11.80;99.90;;;;;;4994123;28;20041;-82
2022/04/16 05:38:31;;;;;;;12.73;8.80;;;11.80;99.90;;;;;;4978901;28;20030;-81
2022/04/16 05:40:57;;;;;;;14.40;10.23;;;11.80;99.90;;;;;;4985230;28;20034;-81
2022/04/16 05:43:22;;;;;;;13.57;9.52;;;11.80;99.90;;;;;;4959210;28;20034;-81
2022/04/16 05:45:48;;;;;;;13.75;9.55;;;11.90;99.90;;;;;;4985488;28;20034;-81
2022/04/16 05:48:14;;;;;;;13.52;9.63;;;11.80;99.90;;;;;;4968962;28;20042;-81
2022/04/16 05:50:40;;;;;;;12.88;9.30;;;11.80;99.90;;;;;;4991551;28;20027;-81
2022/04/16 05:53:10;;;;;;;14.50;9.90;;;11.90;99.90;;;;;;4959456;28;20117;-81
2022/04/16 05:55:39;;;;;;;14.30;9.07;;;11.80;99.90;;;;;;4994126;28;20019;-81
2022/04/16 05:58:04;;;;;;;14.35;10.30;;;11.80;99.90;;;;;;4996062;28;20054;-81
2022/04/16 06:00:30;;;;;;;14.52;9.82;;;11.80;99.90;;;;;;4995792;28;20030;-81
2022/04/16 06:02:56;;;;;;;13.00;9.57;;;11.80;99.90;;;;;;4995766;28;20026;-81
2022/04/16 06:05:22;;;;;;;15.95;9.98;;;11.90;99.90;;;;;;4996794;28;20026;-81
2022/04/16 06:07:48;;;;;;;13.45;10.15;;;11.90;99.90;;;;;;4985591;28;20394;-81
2022/04/16 06:10:14;;;;;;;12.80;9.52;;;12.00;99.90;;;;;;4975003;28;20019;-81
2022/04/16 06:12:42;;;;;;;17.30;11.43;;;12.00;99.90;;;;;;4976234;28;20549;-82
2022/04/16 06:15:08;;;;;;;16.67;11.35;;;12.00;99.90;;;;;;4958563;28;20117;-81
2022/04/16 06:17:35;;;;;;;15.07;10.75;;;12.00;99.90;;;;;;4982037;28;20596;-81
2022/04/16 06:20:01;;;;;;;20.88;12.75;;;11.90;99.90;;;;;;4995410;28;20030;-81
2022/04/16 06:22:26;;;;;;;13.95;11.23;;;11.90;99.90;;;;;;4974807;28;20028;-81
2022/04/16 06:24:52;;;;;;;14.07;10.52;;;12.00;99.90;;;;;;4989239;28;20513;-82
2022/04/16 06:27:17;;;;;;;14.82;10.80;;;12.00;99.90;;;;;;4994033;28;20038;-81
2022/04/16 06:29:43;;;;;;;16.02;10.23;;;12.00;99.90;;;;;;4976718;28;20022;-76
2022/04/16 06:32:09;;;;;;;14.43;10.10;;;12.00;99.90;;;;;;5008260;28;20060;-84
2022/04/16 06:34:41;;;;;;;12.80;9.52;;;12.00;99.90;;;;;;4988764;28;20033;-80
2022/04/16 06:37:06;;;;;;;13.63;9.25;;;12.10;99.90;;;;;;4997799;28;20036;-82
2022/04/16 06:39:32;;;;;;;13.70;9.85;;;12.10;99.90;;;;;;5014843;28;20105;-87
2022/04/16 06:41:58;;;;;;;14.35;10.02;;;12.10;99.90;;;;;;4995209;28;20109;-86
2022/04/16 06:44:24;;;;;;;12.13;9.77;;;12.10;99.90;;;;;;5009427;28;20026;-86
2022/04/16 06:46:50;;;;;;;14.10;10.40;;;12.10;99.90;;;;;;4985326;28;20114;-84
2022/04/16 06:49:16;;;;;;;16.25;10.32;;;12.10;99.90;;;;;;4989728;28;20058;-84
2022/04/16 06:51:50;;;;;;;13.75;10.45;;;12.10;99.90;;;;;;4994966;28;20478;-84
2022/04/16 06:54:16;;;;;;;17.85;13.27;;;12.10;99.90;;;;;;4979798;28;20032;-85
2022/04/16 06:56:42;;;;;;;18.27;12.55;;;12.10;99.90;;;;;;5004158;28;20397;-75
2022/04/16 06:59:07;;;;;;;21.00;13.75;;;12.20;99.90;;;;;;5002717;28;20505;-82
2022/04/16 07:01:33;;;;;;;17.15;12.70;;;12.20;99.90;;;;;;5002670;28;20537;-83
2022/04/16 07:03:59;;;;;;;15.20;11.25;;;12.20;99.90;;;;;;4987459;28;20018;-83
2022/04/16 07:06:25;;;;;;;13.48;10.50;;;12.30;99.90;;;;;;4986870;28;20048;-83
2022/04/16 07:08:50;;;;;;;15.75;10.63;;;12.20;99.90;;;;;;4999631;28;20030;-81
2022/04/16 07:11:16;;;;;;;10.63;8.15;;;12.40;99.90;;;;;;4995758;28;20030;-84
2022/04/16 07:13:41;;;;;;;11.70;7.88;;;12.30;99.90;;;;;;4991019;28;20022;-81
2022/04/16 07:16:07;;;;;;;10.63;7.90;;;12.30;99.90;;;;;;5007326;28;20030;-84
2022/04/16 07:18:33;;;;;;;13.70;8.10;;;12.40;99.90;;;;;;5003637;28;20037;-84
2022/04/16 07:20:58;;;;;;;10.02;7.47;;;12.40;99.90;;;;;;5012086;28;20505;-86
2022/04/16 07:23:24;;;;;;;11.38;8.07;;;12.60;99.90;;;;;;4988957;28;20396;-86
2022/04/16 07:25:50;;;;;;;8.82;6.85;;;12.50;99.90;;;;;;4978583;28;20534;-86
2022/04/16 07:28:21;;;;;;;9.27;7.00;;;12.60;99.90;;;;;;4999208;28;20026;-82
2022/04/16 07:30:51;;;;;;;9.17;7.20;;;12.70;99.90;;;;;;5012882;28;20022;-82
2022/04/16 07:33:17;;;;;;;11.80;7.15;;;12.70;99.90;;;;;;5003803;28;20473;-78
2022/04/16 07:35:43;;;;;;;10.10;6.97;;;12.60;99.90;;;;;;5004873;28;20093;-77
2022/04/16 07:38:09;;;;;;;8.98;6.63;;;12.60;99.90;;;;;;4980383;28;20022;-84
2022/04/16 07:40:34;;;;;;;9.70;7.13;;;12.50;99.90;;;;;;5002234;28;20034;-82
2022/04/16 07:43:01;;;;;;;12.73;6.60;;;12.40;99.90;;;;;;5001729;28;20022;-83
2022/04/16 07:45:28;;;;;;;12.20;6.78;;;12.50;99.90;;;;;;5007568;28;20527;-84
2022/04/16 07:47:53;;;;;;;10.68;7.03;;;12.50;99.90;;;;;;5003457;28;20029;-84
2022/04/16 07:50:19;;;;;;;8.00;6.82;;;12.50;99.90;;;;;;4976665;28;20023;-82
2022/04/16 07:52:46;;;;;;;8.23;6.50;;;12.50;99.90;;;;;;4983959;28;20026;-82
2022/04/16 07:55:12;;;;;;;8.73;7.10;;;12.70;99.90;;;;;;4986918;28;20022;-82
2022/04/16 07:57:38;;;;;;;9.32;6.47;;;12.70;99.90;;;;;;4986254;28;20518;-82
2022/04/16 08:00:06;;;;;;;8.68;6.57;;;12.80;99.90;;;;;;5008948;28;20093;-82
2022/04/16 08:02:41;;;;;;;9.43;7.10;;;12.60;99.90;;;;;;4995926;28;20030;-83
2022/04/16 08:05:07;;;;;;;10.23;6.95;;;12.60;99.90;;;;;;4987375;28;20029;-83
2022/04/16 08:07:33;;;;;;;10.05;7.07;;;12.60;99.90;;;;;;4983299;28;20026;-82
2022/04/16 08:09:59;;;;;;;10.65;7.13;;;12.70;99.90;;;;;;4994333;28;20022;-82
2022/04/16 08:12:25;;;;;;;11.18;6.80;;;12.70;99.90;;;;;;5002767;28;20413;-83
2022/04/16 08:14:51;;;;;;;10.18;6.40;;;12.70;99.90;;;;;;4985272;28;20371;-83
2022/04/16 08:17:17;;;;;;;8.35;6.90;;;12.60;99.90;;;;;;5008190;28;20386;-84
2022/04/16 08:19:43;;;;;;;9.18;6.80;;;12.60;99.90;;;;;;5000241;28;20040;-83
2022/04/16 08:22:11;;;;;;;8.70;6.40;;;12.70;99.90;;;;;;4985772;28;20105;-82
2022/04/16 08:27:03;;;;;;;8.27;5.97;;;12.80;99.90;;;;;;5003492;28;20029;-83
2022/04/16 08:29:29;;;;;;;8.77;6.38;;;13.00;99.90;;;;;;4982662;28;20047;-84
2022/04/16 08:31:55;;;;;;;8.18;6.00;;;13.00;99.90;;;;;;4983181;28;20022;-83
2022/04/16 08:34:20;;;;;;;10.27;6.00;;;12.90;99.90;;;;;;4992971;28;20079;-84
2022/04/16 08:36:46;;;;;;;9.00;6.28;;;12.90;99.90;;;;;;4994691;28;20401;-87
2022/04/16 08:39:12;;;;;;;7.72;6.03;;;12.90;99.90;;;;;;4983035;28;20030;-82
2022/04/16 08:41:39;;;;;;;8.65;6.25;;;13.00;99.90;;;;;;4986361;28;20036;-82
2022/04/16 08:44:05;;;;;;;9.02;6.20;;;13.00;99.90;;;;;;4995619;28;20026;-84
2022/04/16 08:46:32;;;;;;;7.95;6.13;;;13.20;99.90;;;;;;4966358;28;20811;-82
2022/04/16 08:48:59;;;;;;;9.50;6.38;;;13.20;99.90;;;;;;4990844;28;20535;-81
2022/04/16 08:51:28;;;;;;;7.13;5.82;;;13.20;99.90;;;;;;4993654;28;20034;-81
2022/04/16 08:53:54;;;;;;;9.88;6.22;;;13.40;99.90;;;;;;4998820;28;20034;-85
2022/04/16 08:56:20;;;;;;;7.88;5.82;;;13.40;99.90;;;;;;4980927;28;20411;-81
2022/04/16 08:58:46;;;;;;;7.45;5.93;;;13.50;99.90;;;;;;4993545;28;20105;-82
2022/04/16 09:01:12;;;;;;;7.47;5.93;;;13.50;99.90;;;;;;4990949;28;20076;-83
2022/04/16 09:03:39;;;;;;;9.65;6.00;;;13.50;99.90;;;;;;5006549;28;20065;-81
2022/04/16 09:06:07;;;;;;;7.40;5.55;;;13.50;99.90;;;;;;4996557;28;20031;-81
2022/04/16 09:08:34;;;;;;;6.20;5.15;;;13.60;99.90;;;;;;4976750;28;20026;-78
2022/04/16 09:11:11;;;;;;;7.88;5.53;;;13.60;99.90;;;;;;4992761;28;20023;-84
2022/04/16 09:13:56;;;;;;;7.72;5.95;;;13.60;99.90;;;;;;4978279;28;20394;-86
2022/04/16 09:16:22;;;;;;;6.47;5.25;;;13.50;99.90;;;;;;5005991;28;20026;-83
2022/04/16 09:18:55;;;;;;;7.65;6.07;;;13.70;99.90;;;;;;5008149;28;20053;-82
2022/04/16 09:21:28;;;;;;;6.70;5.20;;;13.80;99.90;;;;;;4978173;28;20034;-84
2022/04/16 09:24:00;;;;;;;9.18;5.97;;;13.70;99.90;;;;;;4999842;28;20030;-83
2022/04/16 09:26:39;;;;;;;7.80;5.43;;;13.80;99.90;;;;;;5000435;28;20124;-84
2022/04/16 09:29:10;;;;;;;7.65;5.60;;;13.90;99.90;;;;;;5009807;28;20029;-85
2022/04/16 09:31:40;;;;;;;7.80;5.40;;;13.90;99.90;;;;;;4993555;28;20030;-87
2022/04/16 09:34:07;;;;;;;10.00;5.80;;;13.90;99.90;;;;;;5001498;28;20050;-78
2022/04/16 09:36:39;;;;;;;7.38;5.40;;;14.00;99.90;;;;;;5007791;28;20061;-80
2022/04/16 09:39:07;;;;;;;6.20;4.80;;;14.00;99.90;;;;;;4993337;28;20037;-81
2022/04/16 09:41:40;;;;;;;9.68;5.47;;;14.10;99.90;;;;;;4992202;28;20036;-82
2022/04/16 09:44:21;;;;;;;6.45;5.10;;;14.20;99.90;;;;;;4994854;28;20030;-85
2022/04/16 09:46:48;;;;;;;9.25;5.07;;;14.40;99.90;;;;;;5000661;28;20026;-80
2022/04/16 09:49:15;;;;;;;6.95;5.15;;;14.60;99.90;;;;;;4992662;28;20129;-84
2022/04/16 09:51:43;;;;;;;8.40;4.93;;;14.70;99.90;;;;;;5014261;28;20486;-80
2022/04/16 09:54:09;;;;;;;8.00;5.22;;;14.80;99.90;;;;;;5002272;28;20019;-80
2022/04/16 09:56:40;;;;;;;8.30;5.60;;;14.60;99.90;;;;;;4998993;28;20034;-84
2022/04/16 09:59:08;;;;;;;7.32;5.03;;;14.60;99.90;;;;;;5003282;28;20026;-78
2022/04/16 10:01:38;;;;;;;5.30;4.55;;;14.70;99.90;;;;;;5010958;28;20022;-80
2022/04/16 10:04:06;;;;;;;7.88;4.97;;;14.70;99.90;;;;;;4998828;28;20059;-81
2022/04/16 10:06:32;;;;;;;9.70;4.82;;;15.00;99.90;;;;;;5001754;28;20026;-81
2022/04/16 10:09:00;;;;;;;7.00;4.95;;;14.90;99.90;;;;;;5005217;28;20024;-81
2022/04/16 10:14:28;;;;;;;7.40;4.50;;;15.30;99.90;;;;;;5004704;28;20032;-83
2022/04/16 10:17:17;;;;;;;7.22;4.90;;;15.40;99.90;;;;;;4998692;28;20034;-82
2022/04/16 10:19:46;;;;;;;5.47;3.97;;;15.80;99.90;;;;;;4989595;28;20068;-80
2022/04/16 10:22:27;;;;;;;6.63;4.53;;;16.40;99.90;;;;;;5000215;28;20110;-80
2022/04/16 10:24:59;;;;;;;6.05;4.35;;;17.20;99.90;;;;;;5006459;28;20554;-81
2022/04/16 10:27:30;;;;;;;6.32;4.60;;;17.30;99.90;;;;;;4971364;28;20114;-80
2022/04/16 10:30:00;;;;;;;5.88;4.13;;;17.30;99.90;;;;;;5002535;28;20029;-77
2022/04/16 10:32:40;;;;;;;9.90;4.40;;;17.30;99.90;;;;;;5006226;28;20454;-81
2022/04/16 10:35:14;;;;;;;6.18;4.10;;;17.40;99.90;;;;;;4992851;28;20086;-86
2022/04/16 10:37:42;;;;;;;6.97;4.88;;;17.00;99.90;;;;;;5002626;28;20029;-88
2022/04/16 10:40:20;;;;;;;7.25;4.68;;;17.30;99.90;;;;;;5005057;28;20018;-87
2022/04/16 10:43:06;;;;;;;6.28;4.32;;;17.50;99.90;;;;;;4988425;28;20172;-87
2022/04/16 10:45:36;;;;;;;6.65;4.45;;;17.30;99.90;;;;;;4984757;28;20486;-88
2022/04/16 10:48:03;;;;;;;6.68;4.30;;;17.40;99.90;;;;;;4977154;28;20042;-89
2022/04/16 10:50:32;;;;;;;5.40;3.65;;;17.90;99.90;;;;;;4995585;28;20030;-88
2022/04/16 10:53:01;;;;;;;5.90;3.92;;;18.40;99.90;;;;;;4963309;28;20427;-88
2022/04/16 10:55:31;;;;;;;7.20;3.95;;;18.40;99.90;;;;;;4963803;28;20486;-80
2022/04/16 12:05:47;;;;;;;5.80;3.63;;;20.00;99.90;;;;;;5130297;27;20108;-81
2022/04/16 12:08:14;;;;;;;6.43;3.78;;;20.10;99.90;;;;;;5111103;28;20023;-83
2022/04/16 12:10:43;;;;;;;6.22;3.20;;;20.40;99.90;;;;;;5110586;28;20027;-85
2022/04/16 12:13:13;;;;;;;6.57;4.00;;;20.50;99.90;;;;;;5110917;28;20020;-85
2022/04/16 12:15:44;;;;;;;6.95;4.00;;;20.70;99.90;;;;;;5129864;28;20095;-85
2022/04/16 12:18:15;;;;;;;4.82;2.88;;;20.50;99.90;;;;;;5130022;28;20076;-84
2022/04/16 12:20:46;;;;;;;6.93;4.30;;;20.70;99.90;;;;;;5130752;28;20106;-85
2022/04/16 12:23:22;;;;;;;8.80;3.47;;;20.60;99.50;;;;;;5111139;28;20393;-86
2022/04/16 12:25:49;;;;;;;6.93;4.38;;;20.60;99.80;;;;;;5112451;28;20499;-86
2022/04/16 12:28:15;;;;;;;7.32;3.97;;;20.30;99.70;;;;;;5126440;28;20064;-86
2022/04/16 12:30:49;;;;;;;6.20;3.85;;;20.50;99.40;;;;;;5124305;28;20019;-85
2022/04/16 12:33:15;;;;;;;6.45;3.75;;;20.80;99.50;;;;;;5116137;28;20016;-83
2022/04/16 12:35:47;;;;;;;8.90;3.60;;;20.70;98.80;;;;;;5106458;28;20110;-83
2022/04/16 12:38:15;;;;;;;6.03;3.33;;;20.90;99.60;;;;;;5099726;28;20015;-82
2022/04/16 12:40:42;;;;;;;7.63;3.75;;;20.90;98.50;;;;;;5106604;28;20048;-85
2022/04/16 12:43:07;;;;;;;7.82;3.75;;;21.10;99.00;;;;;;5119840;28;20022;-86
2022/04/16 12:45:34;;;;;;;8.75;4.72;;;20.80;98.70;;;;;;5101813;28;20028;-81
2022/04/16 12:48:00;;;;;;;7.80;4.35;;;20.80;98.90;;;;;;5128078;28;20027;-83
2022/04/16 12:50:28;;;;;;;6.13;3.88;;;20.80;98.50;;;;;;5120746;27;20027;-86
2022/04/16 12:52:54;;;;;;;6.35;3.83;;;21.00;98.70;;;;;;5120479;28;20020;-83
2022/04/16 12:55:20;;;;;;;6.85;3.83;;;21.10;98.20;;;;;;5120555;27;20031;-83
2022/04/16 12:57:46;;;;;;;8.30;3.72;;;21.00;97.90;;;;;;5113181;28;20019;-84
2022/04/16 13:00:14;;;;;;;7.68;4.28;;;21.30;99.00;;;;;;5117209;28;20031;-83
2022/04/16 13:02:42;;;;;;;9.52;4.10;;;21.60;98.60;;;;;;5117991;27;20023;-85
2022/04/16 13:05:15;;;;;;;8.50;4.97;;;21.70;97.30;;;;;;5112072;27;20101;-82
2022/04/16 13:07:41;;;;;;;15.40;4.95;;;21.30;96.90;;;;;;5124344;28;20153;-81
2022/04/16 13:10:08;;;;;;;7.53;4.03;;;21.40;97.60;;;;;;5117512;28;20054;-90
2022/04/16 13:12:34;;;;;;;8.00;4.30;;;21.20;97.30;;;;;;5118630;28;20016;-81
2022/04/16 13:15:00;;;;;;;6.35;4.28;;;21.20;97.70;;;;;;5113918;28;20486;-81
2022/04/16 13:17:26;;;;;;;7.10;4.50;;;21.40;97.40;;;;;;5103527;28;20069;-81
2022/04/16 13:19:52;;;;;;;6.18;4.03;;;21.50;97.50;;;;;;5103378;27;20406;-81
2022/04/16 13:22:18;;;;;;;12.27;5.15;;;21.50;96.80;;;;;;5093634;28;20522;-81
2022/04/16 13:24:43;;;;;;;11.10;3.97;;;21.30;96.60;;;;;;5095357;28;20056;-82
2022/04/16 13:27:11;;;;;;;9.90;4.13;;;21.40;97.30;;;;;;5095583;28;20498;-83
2022/04/16 13:29:37;;;;;;;8.13;4.35;;;21.60;97.40;;;;;;5093770;28;20024;-80
2022/04/16 13:32:03;;;;;;;9.20;4.63;;;21.50;97.60;;;;;;5082816;28;20028;-80
2022/04/16 13:34:29;;;;;;;12.43;4.45;;;21.30;96.40;;;;;;5092196;28;20028;-81
2022/04/16 13:36:55;;;;;;;7.45;4.20;;;21.50;96.80;;;;;;5113035;28;20387;-82
2022/04/16 13:42:06;;;;;;;5.78;3.75;;;21.70;95.60;;;;;;5095439;28;20097;-80
2022/04/16 13:44:32;;;;;;;6.32;3.65;;;21.20;96.00;;;;;;5092941;28;20115;-82
2022/04/16 13:46:58;;;;;;;6.55;3.78;;;20.90;95.70;;;;;;5107398;28;20102;-82
2022/04/16 13:49:25;;;;;;;6.88;3.38;;;20.70;95.70;;;;;;5093308;28;20028;-79
2022/04/16 13:51:50;;;;;;;7.07;3.50;;;20.80;95.80;;;;;;5110863;28;20015;-79
2022/04/16 13:54:16;;;;;;;6.55;3.85;;;20.90;95.90;;;;;;5114658;28;20713;-79
2022/04/16 13:56:42;;;;;;;5.03;3.15;;;20.80;95.50;;;;;;5098913;28;20028;-79
2022/04/16 13:59:09;;;;;;;10.05;4.03;;;20.70;95.40;;;;;;5113432;28;20031;-78
2022/04/16 14:01:34;;;;;;;6.15;3.20;;;20.90;95.60;;;;;;5115434;28;20015;-78
2022/04/16 14:04:00;;;;;;;6.30;3.40;;;21.10;95.30;;;;;;5104733;28;20051;-79
2022/04/16 14:06:27;;;;;;;9.93;3.42;;;21.20;95.60;;;;;;5084279;28;20016;-78
2022/04/16 14:08:53;;;;;;;9.35;3.80;;;21.20;95.90;;;;;;5114903;28;20042;-79
2022/04/16 14:11:18;;;;;;;4.68;2.40;;;21.40;95.40;;;;;;5115040;28;20024;-79
2022/04/16 14:13:44;;;;;;;7.00;3.40;;;21.50;94.30;;;;;;5098522;27;20028;-79